createdAt,value
2023-04-10T00:01:12.510Z,7.34
2023-04-10T00:03:41.415Z,7.30
2023-04-10T00:06:09.134Z,7.26
2023-04-10T00:08:36.951Z,7.26
2023-04-10T00:11:04.897Z,7.22
2023-04-10T00:13:32.736Z,7.18
2023-04-10T00:16:00.421Z,7.14
2023-04-10T00:18:28.705Z,7.11
2023-04-10T00:20:56.337Z,7.13
2023-04-10T00:23:24.222Z,7.15
2023-04-10T00:31:08.720Z,7.11
2023-04-10T00:33:36.380Z,7.10
2023-04-10T00:36:04.800Z,6.99
2023-04-10T00:38:33.228Z,7.00
2023-04-10T00:41:01.107Z,6.95
2023-04-10T00:43:28.691Z,6.94
2023-04-10T00:45:56.725Z,6.88
2023-04-10T00:48:26.190Z,6.83
2023-04-10T00:50:55.204Z,6.80
2023-04-10T00:53:22.882Z,6.75
2023-04-10T00:55:57.480Z,6.71
2023-04-10T00:58:26.710Z,6.69
2023-04-10T01:00:55.127Z,6.68
2023-04-10T01:03:24.041Z,6.61
2023-04-10T01:06:06.998Z,6.65
2023-04-10T01:09:01.489Z,6.63
2023-04-10T01:11:54.969Z,6.66
2023-04-10T01:14:51.704Z,6.51
2023-04-10T01:17:29.640Z,6.49
2023-04-10T01:20:17.048Z,6.44
2023-04-10T01:23:42.171Z,6.40
2023-04-10T01:26:11.997Z,6.33
2023-04-10T01:29:01.892Z,6.34
2023-04-10T01:31:50.500Z,6.31
2023-04-10T01:34:25.164Z,6.28
2023-04-10T01:37:27.494Z,6.30
2023-04-10T01:40:09.334Z,6.28
2023-04-10T01:42:47.989Z,6.24
2023-04-10T01:45:21.371Z,6.20
2023-04-10T01:47:52.386Z,6.18
2023-04-10T01:50:24.306Z,6.16
2023-04-10T01:52:52.926Z,6.12
2023-04-10T01:55:27.582Z,6.10
2023-04-10T01:58:07.363Z,6.10
2023-04-10T02:00:41.644Z,6.06
2023-04-10T02:03:10.664Z,6.04
2023-04-10T02:06:16.229Z,6.00
2023-04-10T02:08:59.518Z,5.96
2023-04-10T02:11:35.470Z,5.97
2023-04-10T02:14:08.605Z,5.85
2023-04-10T02:16:38.665Z,5.92
2023-04-10T02:19:06.898Z,5.91
2023-04-10T02:21:35.140Z,5.88
2023-04-10T02:24:02.851Z,5.84
2023-04-10T02:26:30.368Z,5.85
2023-04-10T02:28:58.097Z,5.79
2023-04-10T02:31:26.224Z,5.73
2023-04-10T02:33:55.354Z,5.74
2023-04-10T02:36:23.149Z,5.68
2023-04-10T02:38:51.298Z,5.66
2023-04-10T02:41:19.108Z,5.64
2023-04-10T02:43:47.025Z,5.64
2023-04-10T02:46:15.416Z,5.60
2023-04-10T02:48:43.092Z,5.61
2023-04-10T02:51:10.750Z,5.54
2023-04-10T02:53:38.747Z,5.54
2023-04-10T02:56:08.257Z,5.54
2023-04-10T02:58:36.532Z,5.50
2023-04-10T03:01:09.679Z,5.53
2023-04-10T03:03:42.527Z,5.51
2023-04-10T03:06:11.024Z,5.47
2023-04-10T03:08:39.886Z,5.41
2023-04-10T03:11:09.263Z,5.37
2023-04-10T03:13:36.947Z,5.38
2023-04-10T03:16:04.774Z,5.37
2023-04-10T03:18:34.139Z,5.38
2023-04-10T03:21:02.619Z,5.39
2023-04-10T03:23:30.146Z,5.35
2023-04-10T03:25:58.410Z,5.33
2023-04-10T03:28:29.722Z,5.27
2023-04-10T03:30:57.293Z,5.21
2023-04-10T03:33:25.365Z,5.26
2023-04-10T03:35:53.627Z,5.23
2023-04-10T03:38:21.386Z,5.19
2023-04-10T03:40:48.895Z,5.24
2023-04-10T03:43:19.582Z,5.32
2023-04-10T03:45:48.981Z,5.32
2023-04-10T03:48:17.886Z,5.33
2023-04-10T03:50:47.712Z,5.30
2023-04-10T03:53:17.089Z,5.28
2023-04-10T03:55:45.898Z,5.32
2023-04-10T03:58:13.424Z,5.27
2023-04-10T04:00:41.182Z,5.22
2023-04-10T04:03:16.096Z,5.21
2023-04-10T04:05:50.989Z,5.14
2023-04-10T04:08:25.553Z,5.08
2023-04-10T04:11:13.042Z,5.08
2023-04-10T04:14:02.362Z,5.10
2023-04-10T04:16:53.056Z,5.10
2023-04-10T04:19:34.484Z,5.15
2023-04-10T04:22:27.942Z,5.14
2023-04-10T04:25:01.518Z,5.13
2023-04-10T04:28:01.971Z,5.14
2023-04-10T04:30:49.454Z,5.14
2023-04-10T04:33:28.426Z,5.15
2023-04-10T04:36:05.536Z,5.11
2023-04-10T04:39:03.434Z,5.11
2023-04-10T04:41:55.146Z,5.10
2023-04-10T04:44:50.591Z,5.08
2023-04-10T04:47:42.808Z,5.10
2023-04-10T04:50:36.762Z,5.06
2023-04-10T04:53:17.293Z,5.08
2023-04-10T04:56:08.345Z,5.10
2023-04-10T04:58:45.352Z,5.10
2023-04-10T05:01:36.234Z,5.13
2023-04-10T05:04:10.225Z,5.16
2023-04-10T05:06:57.936Z,5.20
2023-04-10T05:09:45.428Z,5.28
2023-04-10T05:12:41.875Z,5.30
2023-04-10T05:15:22.477Z,5.32
2023-04-10T05:18:08.343Z,5.31
2023-04-10T05:20:59.457Z,5.38
2023-04-10T05:23:45.799Z,5.45
2023-04-10T05:26:28.500Z,5.59
2023-04-10T05:29:20.840Z,5.57
2023-04-10T05:32:11.727Z,5.67
2023-04-10T05:34:58.216Z,5.71
2023-04-10T05:38:06.695Z,5.79
2023-04-10T05:40:57.498Z,5.84
2023-04-10T05:43:37.897Z,5.96
2023-04-10T05:46:26.679Z,6.11
2023-04-10T05:49:18.452Z,6.20
2023-04-10T05:52:12.447Z,6.34
2023-04-10T05:55:04.758Z,6.47
2023-04-10T05:57:41.396Z,6.57
2023-04-10T06:00:44.014Z,6.75
2023-04-10T06:03:35.539Z,6.93
2023-04-10T06:06:04.040Z,7.07
2023-04-10T06:08:34.639Z,7.10
2023-04-10T06:11:02.316Z,7.24
2023-04-10T06:13:32.610Z,7.31
2023-04-10T06:16:02.193Z,7.50
2023-04-10T06:18:31.410Z,7.67
2023-04-10T06:21:01.871Z,7.67
2023-04-10T06:23:29.866Z,7.68
2023-04-10T06:25:57.644Z,7.80
2023-04-10T06:28:25.419Z,7.83
2023-04-10T06:30:57.551Z,7.89
2023-04-10T06:33:31.734Z,7.91
2023-04-10T06:35:59.644Z,7.94
2023-04-10T06:38:27.363Z,8.03
2023-04-10T06:40:55.154Z,8.03
2023-04-10T06:43:22.796Z,8.10
2023-04-10T06:45:51.145Z,8.19
2023-04-10T06:48:18.914Z,8.28
2023-04-10T06:50:46.600Z,8.37
2023-04-10T06:53:14.219Z,8.47
2023-04-10T06:55:41.802Z,8.53
2023-04-10T06:58:09.325Z,8.59
2023-04-10T07:00:36.932Z,8.70
2023-04-10T07:03:04.550Z,8.71
2023-04-10T07:05:32.217Z,8.90
2023-04-10T07:08:00.120Z,8.93
2023-04-10T07:10:27.708Z,9.00
2023-04-10T07:12:57.256Z,9.18
2023-04-10T07:15:25.737Z,9.34
2023-04-10T07:17:53.273Z,9.49
2023-04-10T07:20:21.106Z,9.60
2023-04-10T07:22:48.748Z,9.83
2023-04-10T07:25:22.570Z,9.92
2023-04-10T07:27:50.620Z,10.07
2023-04-10T07:30:20.395Z,10.21
2023-04-10T07:32:48.335Z,10.35
2023-04-10T07:35:22.072Z,10.49
2023-04-10T07:37:52.459Z,10.70
2023-04-10T07:40:20.486Z,10.84
2023-04-10T07:42:48.390Z,11.01
2023-04-10T07:45:21.311Z,11.27
2023-04-10T07:47:49.580Z,11.49
2023-04-10T07:50:17.315Z,11.59
2023-04-10T07:52:44.919Z,11.99
2023-04-10T07:55:12.558Z,12.18
2023-04-10T07:57:41.708Z,12.28
2023-04-10T08:00:10.623Z,12.41
2023-04-10T08:02:41.270Z,12.89
2023-04-10T08:05:13.575Z,13.10
2023-04-10T08:07:41.394Z,13.13
2023-04-10T08:10:09.470Z,13.33
2023-04-10T08:12:37.334Z,13.42
2023-04-10T08:15:05.661Z,13.37
2023-04-10T08:17:33.213Z,13.91
2023-04-10T08:20:00.750Z,13.93
2023-04-10T08:22:28.375Z,14.14
2023-04-10T08:24:55.952Z,13.95
2023-04-10T08:27:23.541Z,14.43
2023-04-10T08:29:51.152Z,14.56
2023-04-10T08:32:18.719Z,15.06
2023-04-10T08:34:46.729Z,15.24
2023-04-10T08:37:15.692Z,15.00
2023-04-10T08:39:43.274Z,14.60
2023-04-10T08:42:10.818Z,14.97
2023-04-10T08:44:39.741Z,15.19
2023-04-10T08:47:08.709Z,15.29
2023-04-10T08:49:54.317Z,15.38
2023-04-10T08:52:25.276Z,15.37
2023-04-10T08:54:58.646Z,15.17
2023-04-10T08:57:27.280Z,15.55
2023-04-10T08:59:55.542Z,15.75
2023-04-10T09:02:24.535Z,16.22
2023-04-10T09:04:56.369Z,16.37
2023-04-10T09:07:24.073Z,16.75
2023-04-10T09:09:51.652Z,15.85
2023-04-10T09:12:19.350Z,16.30
2023-04-10T09:14:49.644Z,16.67
2023-04-10T09:17:24.277Z,16.90
2023-04-10T09:19:56.354Z,17.25
2023-04-10T09:22:36.285Z,17.27
2023-04-10T09:25:05.669Z,16.69
2023-04-10T09:27:35.484Z,16.98
2023-04-10T09:30:05.073Z,16.86
2023-04-10T09:32:39.715Z,16.91
2023-04-10T09:35:09.540Z,17.17
2023-04-10T09:37:41.276Z,17.50
2023-04-10T09:40:27.868Z,17.55
2023-04-10T09:42:57.720Z,17.40
2023-04-10T09:45:25.923Z,17.55
2023-04-10T09:48:06.609Z,17.58
2023-04-10T09:50:40.744Z,17.52
2023-04-10T09:53:20.123Z,17.53
2023-04-10T09:55:49.621Z,17.83
2023-04-10T09:58:19.072Z,17.96
2023-04-10T10:00:49.328Z,18.18
2023-04-10T10:03:25.434Z,18.16
2023-04-10T10:05:53.163Z,18.54
2023-04-10T10:08:21.808Z,18.62
2023-04-10T10:10:54.110Z,18.83
2023-04-10T10:13:32.111Z,19.09
2023-04-10T10:16:47.393Z,19.08
2023-04-10T10:19:29.224Z,19.03
2023-04-10T10:21:57.529Z,19.02
2023-04-10T10:24:28.058Z,19.27
2023-04-10T10:26:59.677Z,19.55
2023-04-10T10:29:32.315Z,19.60
2023-04-10T10:32:03.747Z,19.57
2023-04-10T10:34:31.873Z,19.56
2023-04-10T10:36:59.989Z,20.03
2023-04-10T10:40:42.399Z,19.75
2023-04-10T10:43:52.935Z,19.83
2023-04-10T10:46:34.576Z,19.88
2023-04-10T10:49:02.441Z,20.19
2023-04-10T10:51:51.179Z,20.79
2023-04-10T10:54:31.416Z,20.57
2023-04-10T10:57:00.131Z,21.05
2023-04-10T10:59:46.455Z,21.45
2023-04-10T11:02:18.999Z,21.18
2023-04-10T11:04:51.407Z,21.52
2023-04-10T11:07:19.351Z,21.32
2023-04-10T11:09:57.062Z,21.33
2023-04-10T11:12:26.833Z,21.57
2023-04-10T11:15:04.772Z,21.52
2023-04-10T11:17:54.342Z,21.44
2023-04-10T11:20:26.971Z,21.69
2023-04-10T11:23:12.137Z,21.35
2023-04-10T11:25:55.858Z,21.23
2023-04-10T11:28:33.110Z,21.39
2023-04-10T11:31:19.631Z,20.93
2023-04-10T11:34:01.679Z,20.34
2023-04-10T11:36:46.177Z,21.12
2023-04-10T11:39:20.818Z,21.73
2023-04-10T11:41:51.951Z,21.88
2023-04-10T11:44:39.038Z,22.46
2023-04-10T11:47:06.719Z,22.84
2023-04-10T11:49:35.002Z,22.88
2023-04-10T11:52:03.127Z,22.32
2023-04-10T11:54:31.267Z,21.19
2023-04-10T11:57:10.174Z,21.96
2023-04-10T11:59:37.764Z,22.54
2023-04-10T12:02:15.135Z,23.07
2023-04-10T12:04:44.656Z,23.06
2023-04-10T12:07:12.583Z,22.11
2023-04-10T12:09:40.644Z,22.80
2023-04-10T12:12:08.893Z,23.73
2023-04-10T12:14:39.766Z,24.02
2023-04-10T12:17:10.024Z,25.53
2023-04-10T12:19:39.725Z,26.56
2023-04-10T12:22:07.709Z,23.04
2023-04-10T12:24:47.387Z,23.03
2023-04-10T12:27:26.773Z,25.07
2023-04-10T12:29:57.863Z,26.53
2023-04-10T12:32:27.634Z,26.24
2023-04-10T12:35:01.141Z,24.98
2023-04-10T12:37:52.273Z,25.10
2023-04-10T12:40:45.517Z,26.15
2023-04-10T12:43:30.587Z,25.11
2023-04-10T12:45:58.588Z,27.09
2023-04-10T12:48:26.356Z,27.41
2023-04-10T12:50:53.984Z,27.53
2023-04-10T12:53:21.719Z,29.50
2023-04-10T12:56:09.405Z,29.73
2023-04-10T12:58:37.234Z,25.69
2023-04-10T13:01:09.802Z,28.06
2023-04-10T13:03:38.198Z,28.42
2023-04-10T13:06:07.540Z,28.64
2023-04-10T13:08:36.451Z,28.30
2023-04-10T13:11:05.576Z,28.28
2023-04-10T13:13:33.752Z,28.10
2023-04-10T13:16:01.511Z,26.16
2023-04-10T13:18:29.327Z,25.17
2023-04-10T13:20:57.056Z,24.53
2023-04-10T13:23:25.009Z,24.92
2023-04-10T13:25:53.782Z,25.92
2023-04-10T13:28:21.911Z,26.03
2023-04-10T13:30:49.558Z,26.68
2023-04-10T13:33:17.231Z,27.45
2023-04-10T13:35:45.428Z,28.28
2023-04-10T13:38:13.656Z,28.64
2023-04-10T13:40:41.956Z,29.00
2023-04-10T13:43:10.114Z,29.52
2023-04-10T13:45:37.734Z,28.19
2023-04-10T13:48:07.422Z,25.99
2023-04-10T13:50:35.172Z,25.88
2023-04-10T13:53:02.951Z,26.26
2023-04-10T13:55:30.564Z,26.99
2023-04-10T13:57:58.280Z,26.91
2023-04-10T14:00:26.312Z,26.61
2023-04-10T14:02:54.283Z,26.62
2023-04-10T14:05:22.594Z,24.83
2023-04-10T14:07:57.349Z,24.83
2023-04-10T14:10:25.309Z,25.30
2023-04-10T14:12:52.940Z,25.93
2023-04-10T14:15:20.589Z,25.99
2023-04-10T14:17:48.410Z,26.70
2023-04-10T14:20:16.125Z,26.59
2023-04-10T14:22:47.450Z,27.58
2023-04-10T14:25:22.808Z,28.18
2023-04-10T14:27:54.061Z,28.86
2023-04-10T14:30:21.769Z,28.48
2023-04-10T14:32:49.608Z,28.27
2023-04-10T14:35:18.131Z,26.20
2023-04-10T14:37:45.943Z,25.82
2023-04-10T14:40:14.586Z,24.61
2023-04-10T14:42:42.471Z,24.98
2023-04-10T14:45:13.524Z,25.51
2023-04-10T14:47:41.834Z,25.74
2023-04-10T14:50:10.207Z,25.69
2023-04-10T14:52:38.463Z,26.27
2023-04-10T14:55:06.890Z,26.00
2023-04-10T14:57:36.134Z,26.31
2023-04-10T15:00:05.300Z,26.05
2023-04-10T15:02:32.976Z,26.15
2023-04-10T15:05:04.657Z,24.22
2023-04-10T15:07:32.477Z,24.63
2023-04-10T15:10:00.400Z,26.53
2023-04-10T15:12:28.089Z,27.57
2023-04-10T15:14:55.722Z,28.33
2023-04-10T15:17:24.291Z,26.96
2023-04-10T15:19:51.996Z,27.38
2023-04-10T15:22:19.642Z,27.69
2023-04-10T15:24:50.874Z,27.40
2023-04-10T15:27:22.149Z,26.44
2023-04-10T15:29:50.321Z,26.44
2023-04-10T15:32:18.056Z,26.56
2023-04-10T15:34:46.158Z,26.92
2023-04-10T15:37:14.333Z,27.08
2023-04-10T15:39:42.200Z,26.77
2023-04-10T15:42:10.357Z,26.85
2023-04-10T15:44:38.565Z,26.44
2023-04-10T15:47:06.887Z,25.03
2023-04-10T15:49:38.183Z,25.32
2023-04-10T15:52:07.483Z,23.53
2023-04-10T15:54:35.563Z,23.12
2023-04-10T15:57:04.826Z,22.21
2023-04-10T15:59:33.798Z,22.61
2023-04-10T16:02:01.894Z,22.98
2023-04-10T16:04:31.099Z,23.52
2023-04-10T16:06:59.450Z,23.52
2023-04-10T16:09:27.657Z,22.51
2023-04-10T16:11:56.158Z,22.67
2023-04-10T16:14:23.956Z,22.99
2023-04-10T16:16:51.531Z,22.95
2023-04-10T16:19:19.428Z,22.57
2023-04-10T16:21:47.032Z,22.82
2023-04-10T16:24:14.699Z,22.63
2023-04-10T16:26:42.415Z,22.73
2023-04-10T16:29:10.036Z,22.59
2023-04-10T16:31:37.780Z,22.13
2023-04-10T16:34:09.887Z,22.34
2023-04-10T16:36:38.063Z,22.19
2023-04-10T16:39:07.417Z,22.16
2023-04-10T16:41:36.521Z,21.99
2023-04-10T16:44:04.985Z,21.76
2023-04-10T16:46:33.283Z,22.06
2023-04-10T16:49:01.643Z,21.51
2023-04-10T16:51:29.679Z,21.32
2023-04-10T16:53:57.588Z,20.56
2023-04-10T16:56:25.467Z,20.48
2023-04-10T16:58:53.567Z,21.02
2023-04-10T17:01:27.108Z,21.05
2023-04-10T17:03:55.329Z,20.56
2023-04-10T17:06:23.321Z,20.78
2023-04-10T17:08:51.401Z,20.40
2023-04-10T17:11:19.088Z,20.64
2023-04-10T17:13:46.850Z,20.22
2023-04-10T17:16:14.995Z,19.61
2023-04-10T17:18:43.518Z,19.92
2023-04-10T17:21:14.568Z,20.12
2023-04-10T17:23:42.541Z,20.14
2023-04-10T17:26:15.179Z,20.19
2023-04-10T17:28:46.382Z,19.38
2023-04-10T17:31:15.932Z,19.48
2023-04-10T17:33:43.740Z,19.51
2023-04-10T17:36:13.570Z,19.52
2023-04-10T17:38:47.753Z,19.44
2023-04-10T17:41:16.406Z,19.37
2023-04-10T17:43:44.907Z,19.35
2023-04-10T17:46:17.076Z,19.07
2023-04-10T17:48:46.108Z,19.04
2023-04-10T17:51:18.481Z,18.74
2023-04-10T17:53:46.742Z,19.09
2023-04-10T17:56:20.823Z,19.24
2023-04-10T17:58:48.689Z,18.98
2023-04-10T18:01:30.977Z,19.02
2023-04-10T18:03:59.733Z,18.90
2023-04-10T18:06:27.667Z,18.69
2023-04-10T18:08:57.503Z,18.80
2023-04-10T18:11:26.162Z,18.89
2023-04-10T18:13:53.690Z,18.85
2023-04-10T18:16:21.329Z,18.81
2023-04-10T18:18:48.918Z,18.81
2023-04-10T18:21:16.602Z,18.75
2023-04-10T18:23:44.626Z,18.59
2023-04-10T18:26:13.202Z,18.55
2023-04-10T18:28:43.047Z,18.53
2023-04-10T18:31:12.507Z,18.57
2023-04-10T18:33:40.195Z,18.41
2023-04-10T18:36:08.372Z,18.46
2023-04-10T18:38:36.656Z,18.48
2023-04-10T18:41:05.334Z,18.44
2023-04-10T18:43:32.906Z,18.21
2023-04-10T18:46:00.827Z,17.94
2023-04-10T18:48:28.617Z,18.08
2023-04-10T18:50:56.309Z,18.04
2023-04-10T18:53:23.972Z,17.91
2023-04-10T18:55:52.796Z,18.02
2023-04-10T18:58:21.934Z,18.04
2023-04-10T19:00:49.665Z,18.06
2023-04-10T19:03:17.538Z,17.97
2023-04-10T19:05:45.887Z,17.98
2023-04-10T19:08:14.639Z,18.01
2023-04-10T19:10:43.307Z,17.98
2023-04-10T19:13:12.220Z,17.99
2023-04-10T19:15:46.487Z,17.98
2023-04-10T19:18:15.884Z,18.00
2023-04-10T19:20:49.231Z,17.99
2023-04-10T19:23:20.539Z,18.05
2023-04-10T19:25:53.347Z,18.00
2023-04-10T19:28:23.758Z,17.99
2023-04-10T19:30:52.204Z,17.98
2023-04-10T19:33:20.569Z,17.89
2023-04-10T19:35:48.166Z,17.88
2023-04-10T19:38:15.871Z,17.88
2023-04-10T19:40:49.109Z,17.92
2023-04-10T19:43:17.103Z,17.89
2023-04-10T19:45:50.441Z,17.86
2023-04-10T19:48:18.445Z,17.83
2023-04-10T19:50:48.580Z,17.75
2023-04-10T19:53:16.422Z,17.63
2023-04-10T19:55:44.989Z,17.69
2023-04-10T19:58:29.976Z,17.71
2023-04-10T20:01:10.178Z,17.67
2023-04-10T20:03:38.701Z,17.69
2023-04-10T20:06:07.698Z,17.67
2023-04-10T20:08:36.498Z,17.28
2023-04-10T20:11:06.225Z,17.19
2023-04-10T20:13:34.846Z,16.73
2023-04-10T20:16:03.023Z,16.91
2023-04-10T20:18:32.122Z,16.78
2023-04-10T20:20:59.838Z,16.56
2023-04-10T20:23:27.524Z,16.54
2023-04-10T20:25:56.593Z,16.45
2023-04-10T20:28:24.658Z,16.27
2023-04-10T20:30:52.310Z,16.29
2023-04-10T20:33:19.940Z,16.15
2023-04-10T20:35:47.554Z,16.05
2023-04-10T20:38:15.367Z,16.38
2023-04-10T20:41:08.688Z,16.33
2023-04-10T20:43:36.746Z,16.07
2023-04-10T20:46:09.131Z,16.04
2023-04-10T20:48:38.029Z,16.16
2023-04-10T20:51:06.456Z,16.11
2023-04-10T20:53:34.344Z,16.23
2023-04-10T20:56:06.484Z,16.55
2023-04-10T20:58:34.360Z,16.61
2023-04-10T21:01:02.044Z,16.77
2023-04-10T21:03:30.788Z,16.84
2023-04-10T21:05:59.030Z,16.90
2023-04-10T21:08:27.577Z,17.01
2023-04-10T21:10:58.628Z,17.13
2023-04-10T21:13:26.718Z,17.05
2023-04-10T21:15:54.301Z,17.05
2023-04-10T21:18:21.966Z,16.95
2023-04-10T21:20:49.826Z,16.80
2023-04-10T21:23:17.484Z,17.04
2023-04-10T21:25:54.432Z,17.12
2023-04-10T21:28:22.415Z,17.17
2023-04-10T21:30:49.995Z,17.09
2023-04-10T21:33:17.541Z,17.17
2023-04-10T21:35:46.110Z,17.18
2023-04-10T21:38:13.929Z,17.26
2023-04-10T21:41:07.145Z,17.28
2023-04-10T21:43:35.383Z,17.18
2023-04-10T21:46:03.567Z,17.20
2023-04-10T21:48:31.527Z,17.12
2023-04-10T21:50:59.290Z,17.07
2023-04-10T21:53:26.889Z,17.06
2023-04-10T21:55:54.592Z,17.18
2023-04-10T21:58:22.113Z,17.16
2023-04-10T22:00:51.602Z,17.09
2023-04-10T22:03:20.284Z,17.16
2023-04-10T22:05:50.200Z,16.91
2023-04-10T22:08:20.138Z,17.08
2023-04-10T22:10:48.108Z,17.00
2023-04-10T22:15:47.124Z,17.08
2023-04-10T22:18:14.752Z,16.86
2023-04-10T22:20:42.647Z,16.84
2023-04-10T22:23:10.587Z,16.75
2023-04-10T22:25:38.953Z,16.63
2023-04-10T22:28:06.640Z,16.79
2023-04-10T22:30:35.495Z,16.94
2023-04-10T22:33:03.179Z,16.79
2023-04-10T22:35:31.562Z,17.02
2023-04-10T22:37:59.387Z,17.02
2023-04-10T22:40:27.146Z,16.67
2023-04-10T22:42:55.210Z,16.85
2023-04-10T22:45:22.877Z,16.96
2023-04-10T22:47:50.910Z,17.07
2023-04-10T22:50:18.937Z,17.04
2023-04-10T22:52:46.588Z,16.84
2023-04-10T22:55:14.726Z,16.86
2023-04-10T22:57:47.338Z,16.88
2023-04-10T23:00:16.110Z,16.67
2023-04-10T23:02:43.947Z,16.79
2023-04-10T23:05:14.725Z,16.78
2023-04-10T23:07:42.330Z,16.60
2023-04-10T23:10:10.236Z,16.70
2023-04-10T23:12:37.798Z,16.60
2023-04-10T23:15:08.128Z,16.48
2023-04-10T23:17:35.837Z,16.44
2023-04-10T23:20:03.704Z,15.93
2023-04-10T23:22:31.381Z,16.15
2023-04-10T23:24:59.012Z,16.33
2023-04-10T23:27:26.878Z,16.39
2023-04-10T23:29:54.724Z,16.33
2023-04-10T23:32:22.329Z,16.44
2023-04-10T23:34:49.955Z,16.47
2023-04-10T23:37:17.480Z,16.52
2023-04-10T23:39:45.005Z,16.48
2023-04-10T23:42:12.607Z,16.42
2023-04-10T23:44:40.887Z,16.55
2023-04-10T23:47:14.030Z,16.60
2023-04-10T23:49:41.595Z,16.44
2023-04-10T23:52:10.676Z,16.34
2023-04-10T23:54:38.244Z,16.53
2023-04-10T23:57:05.947Z,16.29
2023-04-10T23:59:33.768Z,16.16
